Time;durP1;ratioP1;P1;durP2;ratioP2;P2;SDS_P1;SDS_P2;PMS_P1;PMS_P2;Temp;Humidity;BMP_temperature;BMP_pressure;BME280_temperature;BME280_humidity;BME280_pressure;Samples;Min_cycle;Max_cycle;Signal;HPM_P1;HPM_P2
2021/08/31 00:01:44;;;;;;;39.83;5.80;;;14.50;99.70;;;;;;5032323;28;20813;-69
2021/08/31 00:04:11;;;;;;;38.57;5.30;;;14.60;99.70;;;;;;5032801;28;20457;-68
2021/08/31 00:06:38;;;;;;;38.07;5.50;;;14.60;99.70;;;;;;5032292;28;20440;-69
2021/08/31 00:09:04;;;;;;;38.10;5.97;;;14.60;99.70;;;;;;5032246;28;20449;-69
2021/08/31 00:11:32;;;;;;;41.50;6.53;;;14.60;99.70;;;;;;5032054;28;20464;-69
2021/08/31 00:13:59;;;;;;;39.60;7.33;;;14.60;99.70;;;;;;5032522;28;20441;-69
2021/08/31 00:16:26;;;;;;;41.30;5.60;;;14.60;99.70;;;;;;5031929;28;20484;-68
2021/08/31 00:18:52;;;;;;;37.90;5.43;;;14.60;99.70;;;;;;5032070;28;20440;-69
2021/08/31 00:21:19;;;;;;;42.87;5.47;;;14.50;99.70;;;;;;5031923;28;20480;-69
2021/08/31 00:23:46;;;;;;;41.17;5.47;;;14.50;99.70;;;;;;5032343;28;20506;-69
2021/08/31 00:26:12;;;;;;;39.20;5.20;;;14.50;99.70;;;;;;5032230;28;20818;-69
2021/08/31 00:28:41;;;;;;;41.13;5.87;;;14.50;99.70;;;;;;5031568;28;20448;-69
2021/08/31 00:31:07;;;;;;;36.87;4.33;;;14.50;99.70;;;;;;5032064;28;20465;-69
2021/08/31 00:33:34;;;;;;;40.93;5.90;;;14.50;99.70;;;;;;5031874;28;20441;-69
2021/08/31 00:36:03;;;;;;;39.20;5.50;;;14.50;99.70;;;;;;5032064;28;20445;-69
2021/08/31 00:38:30;;;;;;;42.97;6.43;;;14.50;99.70;;;;;;5031147;28;20454;-69
2021/08/31 00:40:57;;;;;;;41.30;5.67;;;14.50;99.70;;;;;;5031948;28;20473;-69
2021/08/31 00:43:24;;;;;;;36.97;5.03;;;14.50;99.70;;;;;;5031719;28;20448;-67
2021/08/31 00:45:52;;;;;;;39.57;5.50;;;14.50;99.70;;;;;;5032161;28;20445;-67
2021/08/31 00:48:22;;;;;;;40.13;6.30;;;14.50;99.70;;;;;;5031660;28;20440;-66
2021/08/31 00:50:51;;;;;;;39.03;5.30;;;14.50;99.70;;;;;;5031679;28;20511;-67
2021/08/31 00:53:18;;;;;;;38.23;5.53;;;14.50;99.70;;;;;;5031667;28;20518;-66
2021/08/31 00:55:46;;;;;;;41.83;6.23;;;14.50;99.70;;;;;;5031867;28;20494;-67
2021/08/31 00:58:13;;;;;;;39.10;5.53;;;14.50;99.70;;;;;;5031522;28;20488;-66
2021/08/31 01:00:39;;;;;;;42.70;6.77;;;14.50;99.70;;;;;;5030988;28;20468;-67
2021/08/31 01:03:07;;;;;;;42.07;7.07;;;14.50;99.70;;;;;;5031743;28;20452;-67
2021/08/31 01:05:35;;;;;;;42.73;6.63;;;14.50;99.70;;;;;;5031499;28;20452;-66
2021/08/31 01:08:02;;;;;;;39.20;5.77;;;14.50;99.70;;;;;;5031748;28;20452;-67
2021/08/31 01:10:29;;;;;;;40.60;5.47;;;14.50;99.70;;;;;;5030449;28;20469;-69
2021/08/31 01:12:56;;;;;;;39.23;5.63;;;14.40;99.70;;;;;;5031763;28;20510;-69
2021/08/31 01:15:24;;;;;;;36.17;4.90;;;14.40;99.70;;;;;;5031204;28;20955;-68
2021/08/31 01:17:52;;;;;;;38.57;5.83;;;14.40;99.70;;;;;;5031251;28;20480;-69
2021/08/31 01:20:20;;;;;;;48.90;8.40;;;14.40;99.70;;;;;;5030769;28;20469;-69
2021/08/31 01:22:48;;;;;;;39.10;6.53;;;14.50;99.70;;;;;;5031119;28;20452;-69
2021/08/31 01:25:16;;;;;;;46.27;7.40;;;14.50;99.70;;;;;;5030861;28;20807;-69
2021/08/31 01:27:42;;;;;;;41.27;7.07;;;14.50;99.70;;;;;;5031059;28;20449;-68
2021/08/31 01:30:10;;;;;;;43.20;7.00;;;14.50;99.70;;;;;;5030777;28;20449;-69
2021/08/31 01:32:37;;;;;;;38.07;5.80;;;14.60;99.70;;;;;;5030706;28;20475;-69
2021/08/31 01:35:04;;;;;;;39.50;6.70;;;14.50;99.70;;;;;;5031046;28;20452;-69
2021/08/31 01:37:31;;;;;;;38.53;5.77;;;14.60;99.70;;;;;;5030395;28;21257;-69
2021/08/31 01:39:57;;;;;;;39.40;6.37;;;14.50;99.70;;;;;;5030591;28;20823;-69
2021/08/31 01:42:25;;;;;;;41.87;7.07;;;14.50;99.70;;;;;;5030413;28;20445;-69
2021/08/31 01:44:52;;;;;;;40.97;6.60;;;14.50;99.70;;;;;;5070469;22;20495;-65
2021/08/31 01:47:19;;;;;;;44.73;6.83;;;14.50;99.70;;;;;;5060605;28;20451;-63
2021/08/31 01:49:45;;;;;;;44.67;7.43;;;14.50;99.70;;;;;;5061470;28;20800;-66
2021/08/31 01:52:12;;;;;;;41.00;6.10;;;14.50;99.70;;;;;;5062466;28;20444;-65
2021/08/31 01:54:39;;;;;;;40.40;5.97;;;14.50;99.70;;;;;;5061829;28;20468;-63
2021/08/31 01:57:05;;;;;;;42.10;7.73;;;14.50;99.70;;;;;;5062589;28;20797;-65
2021/08/31 01:59:33;;;;;;;40.57;7.00;;;14.50;99.70;;;;;;5061457;28;20443;-65
2021/08/31 02:02:00;;;;;;;42.27;6.93;;;14.50;99.70;;;;;;5055660;28;20456;-63
2021/08/31 02:04:27;;;;;;;41.40;6.40;;;14.50;99.70;;;;;;5053922;28;20526;-64
2021/08/31 02:06:53;;;;;;;40.40;6.40;;;14.50;99.70;;;;;;5054442;28;20466;-65
2021/08/31 02:09:20;;;;;;;42.53;6.67;;;14.50;99.70;;;;;;5053929;28;20456;-64
2021/08/31 02:11:47;;;;;;;40.83;6.50;;;14.60;99.70;;;;;;5055013;28;20446;-62
2021/08/31 02:14:13;;;;;;;39.77;7.40;;;14.60;99.70;;;;;;5055480;28;20463;-63
2021/08/31 02:16:42;;;;;;;39.63;6.30;;;14.50;99.70;;;;;;5055052;28;21013;-66
2021/08/31 02:19:08;;;;;;;40.70;6.93;;;14.50;99.70;;;;;;5054271;28;20448;-64
2021/08/31 02:21:35;;;;;;;40.70;7.17;;;14.50;99.70;;;;;;5054694;28;20466;-63
2021/08/31 02:24:02;;;;;;;43.27;6.57;;;14.50;99.70;;;;;;5055378;28;20471;-63
2021/08/31 02:26:31;;;;;;;41.83;7.73;;;14.50;99.70;;;;;;5055215;28;20455;-64
2021/08/31 02:28:57;;;;;;;47.70;7.80;;;14.50;99.70;;;;;;5055012;28;20505;-63
2021/08/31 02:31:24;;;;;;;42.63;5.67;;;14.50;99.70;;;;;;5054635;28;20819;-64
2021/08/31 02:33:52;;;;;;;41.77;6.80;;;14.50;99.70;;;;;;5055431;28;20467;-64
2021/08/31 02:36:19;;;;;;;45.70;6.23;;;14.40;99.70;;;;;;5054599;28;20500;-64
2021/08/31 02:38:45;;;;;;;38.63;5.97;;;14.50;99.70;;;;;;5054552;28;20444;-64
2021/08/31 02:41:12;;;;;;;47.83;5.80;;;14.40;99.70;;;;;;5054597;28;20830;-64
2021/08/31 02:43:39;;;;;;;44.23;7.10;;;14.40;99.70;;;;;;5055558;28;20440;-64
2021/08/31 02:46:05;;;;;;;39.80;6.53;;;14.40;99.70;;;;;;5054445;28;20829;-63
2021/08/31 02:48:32;;;;;;;42.50;7.07;;;14.40;99.70;;;;;;5054978;28;20769;-63
2021/08/31 02:51:00;;;;;;;41.97;7.40;;;14.40;99.70;;;;;;5054833;28;20448;-64
2021/08/31 02:53:27;;;;;;;42.40;6.53;;;14.40;99.70;;;;;;5055052;28;20447;-63
2021/08/31 02:55:53;;;;;;;43.10;7.27;;;14.30;99.70;;;;;;5055132;28;20887;-65
2021/08/31 02:58:20;;;;;;;40.30;6.70;;;14.30;99.70;;;;;;5055179;28;20486;-64
2021/08/31 03:01:03;;;;;;;42.30;5.93;;;14.30;99.70;;;;;;5054750;28;20798;-64
2021/08/31 03:03:30;;;;;;;44.40;7.00;;;14.30;99.70;;;;;;5054690;28;20966;-63
2021/08/31 03:05:57;;;;;;;41.60;6.00;;;14.30;99.70;;;;;;5056209;28;20529;-63
2021/08/31 03:08:25;;;;;;;44.10;7.90;;;14.30;99.70;;;;;;5054835;28;20447;-62
2021/08/31 03:10:51;;;;;;;46.17;7.40;;;14.30;99.70;;;;;;5055673;28;20455;-64
2021/08/31 03:13:18;;;;;;;41.83;7.30;;;14.30;99.70;;;;;;5054379;28;20439;-64
2021/08/31 03:15:45;;;;;;;42.67;7.40;;;14.30;99.70;;;;;;5054717;28;20997;-63
2021/08/31 03:18:11;;;;;;;44.70;7.00;;;14.30;99.70;;;;;;5054911;28;20486;-64
2021/08/31 03:20:38;;;;;;;43.33;6.47;;;14.30;99.70;;;;;;5055597;28;20451;-63
2021/08/31 03:23:05;;;;;;;41.97;6.40;;;14.30;99.70;;;;;;5055370;28;20447;-64
2021/08/31 03:25:33;;;;;;;40.00;6.93;;;14.40;99.70;;;;;;5055189;28;20480;-64
2021/08/31 03:27:59;;;;;;;41.37;6.90;;;14.30;99.70;;;;;;5055349;28;20443;-65
2021/08/31 03:30:26;;;;;;;46.50;7.60;;;14.30;99.70;;;;;;5055637;28;20447;-64
2021/08/31 03:32:53;;;;;;;46.50;7.57;;;14.30;99.70;;;;;;5057119;28;20455;-64
2021/08/31 03:35:21;;;;;;;41.03;6.80;;;14.30;99.70;;;;;;5059100;28;21032;-63
2021/08/31 03:37:47;;;;;;;41.20;7.60;;;14.30;99.70;;;;;;5058596;28;20483;-63
2021/08/31 03:40:15;;;;;;;43.83;6.60;;;14.30;99.70;;;;;;5059109;28;20843;-64
2021/08/31 03:42:43;;;;;;;42.60;8.17;;;14.30;99.70;;;;;;5059795;28;20756;-64
2021/08/31 03:45:10;;;;;;;42.13;8.50;;;14.30;99.70;;;;;;5059416;28;20482;-63
2021/08/31 03:47:37;;;;;;;44.67;7.47;;;14.20;99.70;;;;;;5060003;28;20443;-64
2021/08/31 03:50:04;;;;;;;43.60;6.93;;;14.20;99.70;;;;;;5058980;28;20471;-63
2021/08/31 03:52:31;;;;;;;43.37;7.10;;;14.20;99.70;;;;;;5059303;28;20448;-62
2021/08/31 03:54:58;;;;;;;39.37;6.17;;;14.20;99.70;;;;;;5059901;28;20486;-65
2021/08/31 03:57:24;;;;;;;42.83;7.00;;;14.20;99.70;;;;;;5059488;28;20491;-63
2021/08/31 03:59:52;;;;;;;47.00;6.90;;;14.20;99.70;;;;;;5059647;28;20778;-62
2021/08/31 04:02:21;;;;;;;39.70;6.90;;;14.20;99.70;;;;;;5061038;28;20456;-65
2021/08/31 04:04:48;;;;;;;42.63;7.43;;;14.10;99.70;;;;;;5061122;28;20463;-67
2021/08/31 04:07:14;;;;;;;40.90;6.30;;;14.10;99.70;;;;;;5060054;28;20493;-65
2021/08/31 04:09:41;;;;;;;41.47;7.27;;;14.10;99.70;;;;;;5061277;28;20947;-63
2021/08/31 04:12:09;;;;;;;41.97;7.07;;;14.10;99.70;;;;;;5061348;28;20850;-65
2021/08/31 04:14:36;;;;;;;40.73;6.87;;;14.20;99.70;;;;;;5061372;28;20471;-66
2021/08/31 04:17:04;;;;;;;42.73;6.93;;;14.20;99.70;;;;;;5061248;28;20442;-63
2021/08/31 04:19:31;;;;;;;39.97;6.47;;;14.20;99.70;;;;;;5061422;28;20440;-65
2021/08/31 04:21:57;;;;;;;43.90;7.27;;;14.20;99.70;;;;;;5061684;28;20444;-64
2021/08/31 04:24:24;;;;;;;44.83;6.80;;;14.20;99.70;;;;;;5061845;28;20467;-67
2021/08/31 04:26:50;;;;;;;41.70;7.87;;;14.20;99.70;;;;;;5061667;28;20440;-67
2021/08/31 04:29:17;;;;;;;42.00;6.57;;;14.20;99.70;;;;;;5061370;28;20448;-66
2021/08/31 04:31:44;;;;;;;44.93;6.60;;;14.30;99.70;;;;;;5060900;28;20448;-67
2021/08/31 04:34:12;;;;;;;46.30;8.20;;;14.20;99.70;;;;;;5060299;28;20478;-67
2021/08/31 04:36:39;;;;;;;42.80;8.20;;;14.20;99.70;;;;;;5060741;28;20443;-67
2021/08/31 04:39:06;;;;;;;43.10;6.97;;;14.30;99.70;;;;;;5060530;28;20497;-66
2021/08/31 04:41:33;;;;;;;39.73;6.93;;;14.30;99.70;;;;;;5061127;28;20479;-66
2021/08/31 04:43:59;;;;;;;43.53;8.17;;;14.30;99.70;;;;;;5060846;28;20542;-66
2021/08/31 04:46:26;;;;;;;43.67;7.00;;;14.30;99.70;;;;;;5060647;28;20455;-65
2021/08/31 04:48:53;;;;;;;41.17;7.07;;;14.30;99.70;;;;;;5060481;28;20436;-65
2021/08/31 04:51:21;;;;;;;45.47;7.47;;;14.30;99.70;;;;;;5062088;28;20914;-64
2021/08/31 04:53:47;;;;;;;42.67;8.13;;;14.30;99.70;;;;;;5061647;28;20436;-65
2021/08/31 04:56:14;;;;;;;42.97;8.20;;;14.30;99.70;;;;;;5062006;28;20455;-65
2021/08/31 04:58:41;;;;;;;44.80;7.80;;;14.30;99.70;;;;;;5061719;28;20723;-65
2021/08/31 05:01:07;;;;;;;44.90;7.97;;;14.30;99.70;;;;;;5062313;28;20470;-66
2021/08/31 05:03:37;;;;;;;43.87;7.40;;;14.30;99.70;;;;;;5062209;28;20444;-65
2021/08/31 05:06:04;;;;;;;43.23;7.10;;;14.30;99.70;;;;;;5061899;28;20454;-66
2021/08/31 05:08:31;;;;;;;39.10;5.87;;;14.30;99.70;;;;;;5061380;28;20444;-65
2021/08/31 05:10:58;;;;;;;40.33;5.80;;;14.40;99.70;;;;;;5061290;28;20439;-65
2021/08/31 05:13:25;;;;;;;45.67;7.23;;;14.40;99.70;;;;;;5061631;28;20829;-66
2021/08/31 05:15:51;;;;;;;43.80;6.90;;;14.40;99.70;;;;;;5060939;28;20471;-65
2021/08/31 05:18:18;;;;;;;41.77;6.70;;;14.40;99.70;;;;;;5061407;28;20483;-66
2021/08/31 05:20:45;;;;;;;42.33;7.30;;;14.40;99.70;;;;;;5060801;28;20455;-65
2021/08/31 05:23:12;;;;;;;40.47;6.43;;;14.30;99.70;;;;;;5061928;28;20447;-66
2021/08/31 05:25:40;;;;;;;41.10;6.40;;;14.30;99.70;;;;;;5061668;28;20464;-65
2021/08/31 05:28:07;;;;;;;42.80;7.27;;;14.30;99.70;;;;;;5061460;28;20444;-65
2021/08/31 05:30:33;;;;;;;43.13;6.07;;;14.40;99.70;;;;;;5061148;28;20447;-64
2021/08/31 05:33:00;;;;;;;43.30;6.43;;;14.40;99.70;;;;;;5061542;28;20448;-65
2021/08/31 05:35:27;;;;;;;46.00;7.50;;;14.30;99.70;;;;;;5061569;28;20490;-65
2021/08/31 05:37:54;;;;;;;42.83;6.83;;;14.30;99.70;;;;;;5061564;28;20491;-64
2021/08/31 05:40:22;;;;;;;47.90;8.00;;;14.30;99.70;;;;;;5061187;28;20447;-66
2021/08/31 05:42:50;;;;;;;45.90;7.63;;;14.40;99.70;;;;;;5061528;28;20451;-67
2021/08/31 05:45:16;;;;;;;43.23;6.10;;;14.40;99.70;;;;;;5061132;28;20564;-67
2021/08/31 05:47:43;;;;;;;40.83;6.10;;;14.40;99.70;;;;;;5054817;28;20447;-64
2021/08/31 05:50:10;;;;;;;42.17;7.13;;;14.40;99.70;;;;;;5053499;28;20463;-64
2021/08/31 05:52:37;;;;;;;42.57;6.33;;;14.40;99.70;;;;;;5053232;28;20451;-65
2021/08/31 05:55:04;;;;;;;40.70;5.70;;;14.40;99.70;;;;;;5054198;28;20555;-65
2021/08/31 05:57:31;;;;;;;43.00;6.70;;;14.40;99.70;;;;;;5053870;28;20451;-63
2021/08/31 05:59:59;;;;;;;38.73;6.63;;;14.40;99.70;;;;;;5056382;28;20451;-65
2021/08/31 06:02:25;;;;;;;40.67;5.63;;;14.40;99.70;;;;;;5060042;28;20439;-65
2021/08/31 06:04:52;;;;;;;40.97;6.33;;;14.40;99.70;;;;;;5058857;28;20464;-64
2021/08/31 06:07:19;;;;;;;43.67;5.70;;;14.40;99.70;;;;;;5060044;28;20446;-65
2021/08/31 06:09:46;;;;;;;40.67;5.83;;;14.50;99.70;;;;;;5057542;28;20442;-63
2021/08/31 06:12:14;;;;;;;39.67;6.00;;;14.50;99.70;;;;;;5058152;28;20860;-65
2021/08/31 06:14:41;;;;;;;40.90;4.90;;;14.50;99.70;;;;;;5057150;28;20657;-65
2021/08/31 06:17:09;;;;;;;42.30;7.13;;;14.50;99.70;;;;;;5057845;28;20451;-65
2021/08/31 06:19:37;;;;;;;40.30;5.20;;;14.50;99.70;;;;;;5057772;28;20998;-65
2021/08/31 06:22:04;;;;;;;39.40;6.10;;;14.50;99.70;;;;;;5058408;28;20447;-65
2021/08/31 06:24:31;;;;;;;43.57;6.50;;;14.50;99.70;;;;;;5057604;28;20470;-65
2021/08/31 06:26:58;;;;;;;40.50;5.57;;;14.50;99.70;;;;;;5057774;28;20451;-64
2021/08/31 06:29:25;;;;;;;41.27;6.40;;;14.60;99.70;;;;;;5057786;28;20436;-63
2021/08/31 06:31:51;;;;;;;39.80;6.07;;;14.60;99.70;;;;;;5058263;28;20463;-67
2021/08/31 06:34:19;;;;;;;40.43;6.13;;;14.70;99.70;;;;;;5058398;28;21004;-64
2021/08/31 06:36:47;;;;;;;43.73;5.67;;;14.70;99.70;;;;;;5057511;28;20462;-65
2021/08/31 06:39:14;;;;;;;39.17;5.20;;;14.70;99.70;;;;;;5057684;28;20578;-65
2021/08/31 06:41:40;;;;;;;39.03;5.10;;;14.70;99.70;;;;;;5058316;28;20440;-64
2021/08/31 06:44:07;;;;;;;41.90;5.97;;;14.80;99.70;;;;;;5058388;28;20849;-64
2021/08/31 06:46:34;;;;;;;43.30;5.50;;;14.80;99.70;;;;;;5058453;28;20450;-65
2021/08/31 06:49:01;;;;;;;40.80;5.40;;;14.80;99.70;;;;;;5056882;28;20454;-64
2021/08/31 06:51:29;;;;;;;41.97;5.50;;;14.90;99.70;;;;;;5057114;28;20454;-64
2021/08/31 06:53:56;;;;;;;43.23;6.93;;;14.90;99.70;;;;;;5057481;28;20472;-65
2021/08/31 06:56:22;;;;;;;41.70;5.80;;;14.90;99.70;;;;;;5057432;28;20447;-64
2021/08/31 06:58:49;;;;;;;41.67;6.50;;;15.00;99.70;;;;;;5057370;28;20479;-64
2021/08/31 07:01:16;;;;;;;40.90;6.20;;;15.00;99.70;;;;;;5058087;28;20439;-64
2021/08/31 07:03:43;;;;;;;41.27;5.90;;;15.00;99.70;;;;;;5056754;28;20447;-64
2021/08/31 07:06:09;;;;;;;40.33;5.80;;;15.00;99.70;;;;;;5058062;28;20447;-64
2021/08/31 07:08:37;;;;;;;38.70;4.80;;;15.00;99.70;;;;;;5058907;28;20527;-66
2021/08/31 07:11:04;;;;;;;43.30;5.67;;;15.10;99.70;;;;;;5061257;28;20462;-67
2021/08/31 07:13:31;;;;;;;42.70;6.00;;;15.00;99.70;;;;;;5061029;28;20471;-65
2021/08/31 07:15:58;;;;;;;39.07;4.87;;;15.10;99.70;;;;;;5060899;28;20447;-64
2021/08/31 07:18:24;;;;;;;38.97;5.30;;;15.10;99.70;;;;;;5060729;28;20852;-65
2021/08/31 07:20:51;;;;;;;39.60;6.10;;;15.00;99.70;;;;;;5061627;28;20444;-65
2021/08/31 07:23:18;;;;;;;43.37;6.47;;;15.10;99.70;;;;;;5060728;28;20447;-63
2021/08/31 07:25:46;;;;;;;39.30;6.03;;;15.00;99.70;;;;;;5060998;28;21010;-64
2021/08/31 07:28:13;;;;;;;39.13;5.57;;;15.00;99.70;;;;;;5062121;28;20447;-65
2021/08/31 07:30:40;;;;;;;39.67;6.37;;;15.00;99.70;;;;;;5059733;28;20965;-64
2021/08/31 07:33:07;;;;;;;41.47;7.70;;;15.10;99.70;;;;;;5061594;28;20447;-67
2021/08/31 07:35:34;;;;;;;41.30;9.47;;;15.10;99.70;;;;;;5060735;28;20476;-63
2021/08/31 07:38:01;;;;;;;39.13;7.20;;;15.20;99.70;;;;;;5062033;28;20800;-65
2021/08/31 07:40:28;;;;;;;40.17;8.03;;;15.30;99.70;;;;;;5061086;28;20497;-66
2021/08/31 07:42:56;;;;;;;42.50;10.70;;;15.50;99.70;;;;;;5062198;28;20872;-66
2021/08/31 07:45:23;;;;;;;40.23;9.03;;;15.50;99.70;;;;;;5094392;22;20476;-68
2021/08/31 07:47:50;;;;;;;43.53;10.80;;;15.60;99.70;;;;;;5050724;28;20447;-66
2021/08/31 07:50:17;;;;;;;43.13;10.00;;;15.50;99.70;;;;;;5051514;28;20443;-67
2021/08/31 07:52:44;;;;;;;41.37;9.10;;;15.60;99.70;;;;;;5052636;28;20447;-66
2021/08/31 07:55:12;;;;;;;41.63;9.90;;;15.50;99.70;;;;;;5052743;28;20448;-66
2021/08/31 07:57:39;;;;;;;39.23;8.60;;;15.50;99.70;;;;;;5052499;28;20843;-66
2021/08/31 08:00:10;;;;;;;40.67;8.73;;;15.60;99.70;;;;;;5052317;28;20998;-68
2021/08/31 08:02:37;;;;;;;42.00;9.37;;;15.60;99.70;;;;;;5051942;28;20444;-66
2021/08/31 08:05:05;;;;;;;37.90;7.50;;;15.60;99.70;;;;;;5052608;28;20443;-67
2021/08/31 08:07:32;;;;;;;44.07;9.80;;;15.60;99.70;;;;;;5052121;28;21016;-67
2021/08/31 08:09:59;;;;;;;41.47;7.60;;;15.60;99.70;;;;;;5052656;28;20448;-66
2021/08/31 08:12:26;;;;;;;40.17;8.30;;;15.60;99.70;;;;;;5052346;28;20455;-67
2021/08/31 08:14:53;;;;;;;38.90;8.40;;;15.60;99.70;;;;;;5052451;28;20444;-66
2021/08/31 08:17:23;;;;;;;41.20;7.90;;;15.60;99.70;;;;;;5052227;28;20836;-68
2021/08/31 08:19:50;;;;;;;40.00;7.30;;;15.70;99.70;;;;;;5051982;28;20475;-67
2021/08/31 08:22:17;;;;;;;40.73;8.27;;;15.60;99.70;;;;;;5052234;28;20863;-66
2021/08/31 08:24:44;;;;;;;41.40;7.63;;;15.60;99.70;;;;;;5052084;28;20440;-68
2021/08/31 08:27:11;;;;;;;40.40;7.90;;;15.60;99.70;;;;;;5052126;28;20463;-67
2021/08/31 08:29:38;;;;;;;41.10;7.37;;;15.70;99.70;;;;;;5051679;28;20443;-67
2021/08/31 08:32:07;;;;;;;40.40;7.00;;;15.70;99.70;;;;;;5052188;28;20542;-67
2021/08/31 08:34:35;;;;;;;39.93;6.90;;;15.70;99.70;;;;;;5051712;28;20440;-66
2021/08/31 08:37:02;;;;;;;43.67;7.13;;;15.70;99.70;;;;;;5052075;28;20889;-66
2021/08/31 08:39:29;;;;;;;41.93;7.37;;;15.80;99.70;;;;;;5051146;28;20479;-66
2021/08/31 08:41:56;;;;;;;40.10;7.60;;;15.80;99.70;;;;;;5051915;28;20796;-68
2021/08/31 08:44:26;;;;;;;38.63;8.03;;;15.80;99.70;;;;;;5051489;28;20454;-68
2021/08/31 08:46:53;;;;;;;40.20;6.13;;;15.90;99.70;;;;;;5051737;28;20496;-68
2021/08/31 08:49:19;;;;;;;43.17;7.27;;;15.80;99.70;;;;;;5050015;28;20455;-67
2021/08/31 08:51:48;;;;;;;39.13;5.73;;;15.90;99.70;;;;;;5051913;28;20447;-66
2021/08/31 08:54:14;;;;;;;38.20;5.97;;;15.80;99.70;;;;;;5051647;28;20471;-68
2021/08/31 08:56:41;;;;;;;39.60;6.77;;;16.00;99.70;;;;;;5051626;28;20475;-68
2021/08/31 08:59:08;;;;;;;38.03;5.40;;;16.10;99.70;;;;;;5051096;28;20479;-67
2021/08/31 09:01:41;;;;;;;44.00;6.47;;;16.20;99.70;;;;;;5051110;28;20451;-68
2021/08/31 09:04:08;;;;;;;43.33;6.70;;;16.10;99.70;;;;;;5051533;28;20443;-66
2021/08/31 09:06:35;;;;;;;37.07;6.13;;;16.20;99.70;;;;;;5050825;28;20551;-67
2021/08/31 09:09:06;;;;;;;37.40;6.17;;;16.40;99.70;;;;;;5051196;28;20444;-68
2021/08/31 09:11:35;;;;;;;36.93;4.57;;;16.50;99.70;;;;;;5051266;28;20452;-69
2021/08/31 09:14:23;;;;;;;37.50;5.97;;;16.60;99.70;;;;;;5051158;28;20439;-67
2021/08/31 09:16:52;;;;;;;36.93;5.60;;;16.60;99.70;;;;;;5050945;28;20554;-68
2021/08/31 09:19:19;;;;;;;38.20;5.10;;;16.70;99.70;;;;;;5050897;28;20483;-67
2021/08/31 09:21:47;;;;;;;40.37;5.83;;;16.70;99.70;;;;;;5050772;28;20455;-68
2021/08/31 09:24:16;;;;;;;37.03;5.07;;;16.80;99.70;;;;;;5051121;28;20926;-67
2021/08/31 09:26:44;;;;;;;40.27;5.07;;;17.10;99.70;;;;;;5050775;28;20577;-66
2021/08/31 09:29:18;;;;;;;38.60;4.73;;;17.10;99.70;;;;;;5050662;28;20516;-68
2021/08/31 09:31:47;;;;;;;35.90;4.10;;;17.20;99.70;;;;;;5050032;28;20463;-67
2021/08/31 09:34:39;;;;;;;42.73;4.70;;;17.10;99.70;;;;;;5050806;28;20823;-67
2021/08/31 09:37:32;;;;;;;38.17;4.47;;;17.00;99.70;;;;;;5050646;28;21012;-67
2021/08/31 09:40:18;;;;;;;36.63;4.40;;;17.00;99.70;;;;;;5050629;28;20494;-66
2021/08/31 09:42:58;;;;;;;38.20;4.20;;;17.00;99.70;;;;;;5049794;28;20508;-66
2021/08/31 09:45:28;;;;;;;34.33;3.40;;;16.90;99.70;;;;;;5048549;28;20443;-68
2021/08/31 09:47:56;;;;;;;38.43;3.90;;;16.90;99.70;;;;;;5048723;28;20440;-67
2021/08/31 09:50:42;;;;;;;38.63;4.53;;;16.80;99.70;;;;;;5047986;28;20443;-68
2021/08/31 09:53:12;;;;;;;36.87;4.40;;;16.80;99.70;;;;;;5050093;28;20444;-67
2021/08/31 09:55:42;;;;;;;37.10;4.70;;;16.70;99.70;;;;;;5050377;28;20472;-67
2021/08/31 09:58:14;;;;;;;39.13;4.10;;;16.60;99.70;;;;;;5049949;28;20439;-67
2021/08/31 10:00:42;;;;;;;36.27;4.00;;;16.60;99.70;;;;;;5050106;28;20493;-66
2021/08/31 10:03:09;;;;;;;36.07;3.67;;;16.50;99.70;;;;;;5050840;28;20448;-68
2021/08/31 10:05:37;;;;;;;38.13;4.27;;;16.60;99.70;;;;;;5051079;28;20467;-68
2021/08/31 10:08:04;;;;;;;37.33;3.67;;;16.60;99.70;;;;;;5051039;28;20447;-67
2021/08/31 10:10:32;;;;;;;37.17;3.70;;;16.70;99.70;;;;;;5049902;28;20942;-67
2021/08/31 10:13:03;;;;;;;36.07;3.73;;;16.60;99.70;;;;;;5045484;28;20443;-68
2021/08/31 10:15:31;;;;;;;36.20;4.70;;;16.70;99.70;;;;;;5048481;28;20514;-67
2021/08/31 10:17:58;;;;;;;37.60;4.17;;;16.60;99.70;;;;;;5050026;28;20562;-68
2021/08/31 10:20:27;;;;;;;38.50;4.37;;;16.70;99.70;;;;;;5049528;28;20483;-68
2021/08/31 10:22:54;;;;;;;38.67;4.70;;;16.60;99.70;;;;;;5049641;28;20484;-67
2021/08/31 10:25:22;;;;;;;37.20;4.13;;;16.60;99.70;;;;;;5047304;28;20850;-68
2021/08/31 10:27:50;;;;;;;34.87;3.43;;;16.70;99.70;;;;;;5049870;28;20440;-68
2021/08/31 10:30:47;;;;;;;39.53;4.10;;;16.70;99.70;;;;;;5049803;28;20439;-69
2021/08/31 10:33:38;;;;;;;35.90;3.97;;;16.80;99.70;;;;;;5049855;28;20444;-68
2021/08/31 10:36:08;;;;;;;36.20;3.80;;;16.80;99.70;;;;;;5049338;28;20550;-69
2021/08/31 10:38:47;;;;;;;35.27;4.00;;;17.00;99.70;;;;;;5049738;28;20534;-69
2021/08/31 10:41:45;;;;;;;36.80;3.30;;;16.90;99.70;;;;;;5049387;28;20857;-68
2021/08/31 10:44:14;;;;;;;35.30;3.47;;;17.00;99.70;;;;;;5020585;28;20880;-67
2021/08/31 10:47:06;;;;;;;34.80;3.00;;;17.10;99.70;;;;;;5033767;28;20483;-68
2021/08/31 10:50:04;;;;;;;35.07;3.93;;;17.20;99.70;;;;;;5034055;28;20445;-68
2021/08/31 10:52:34;;;;;;;35.70;3.47;;;17.20;99.70;;;;;;5026455;28;20504;-67
2021/08/31 10:55:01;;;;;;;35.77;3.47;;;17.30;99.70;;;;;;5028684;28;20474;-68
2021/08/31 10:57:44;;;;;;;34.53;3.50;;;17.30;99.70;;;;;;5028554;28;20477;-66
2021/08/31 11:00:52;;;;;;;34.20;3.20;;;17.20;99.70;;;;;;5048406;28;20487;-69
2021/08/31 11:03:37;;;;;;;36.93;3.80;;;17.20;99.70;;;;;;5048895;28;20435;-68
2021/08/31 11:06:28;;;;;;;35.80;3.47;;;17.30;99.70;;;;;;5048755;28;20467;-69
2021/08/31 11:09:16;;;;;;;34.80;3.17;;;17.30;99.70;;;;;;5046822;28;20466;-66
2021/08/31 11:11:46;;;;;;;36.53;3.70;;;17.40;99.70;;;;;;5047479;28;20953;-68
2021/08/31 11:14:14;;;;;;;33.87;3.20;;;17.40;99.70;;;;;;5047726;28;20439;-69
2021/08/31 11:16:42;;;;;;;34.60;4.00;;;17.60;99.70;;;;;;5050317;28;20899;-69
2021/08/31 11:19:25;;;;;;;36.40;4.10;;;17.60;99.70;;;;;;5051064;28;20444;-67
2021/08/31 11:21:53;;;;;;;34.57;3.53;;;17.70;99.70;;;;;;5051732;28;20439;-68
2021/08/31 11:24:20;;;;;;;34.70;3.73;;;17.90;99.70;;;;;;5052878;28;20938;-68
2021/08/31 11:26:47;;;;;;;35.77;3.87;;;17.90;99.70;;;;;;5052845;28;20468;-68
2021/08/31 11:29:14;;;;;;;36.87;3.97;;;17.80;99.70;;;;;;5052924;28;20450;-69
2021/08/31 11:31:42;;;;;;;35.50;3.97;;;17.80;99.70;;;;;;5052800;28;20447;-68
2021/08/31 11:34:12;;;;;;;36.20;4.10;;;17.80;99.70;;;;;;5052181;28;20815;-68
2021/08/31 11:36:43;;;;;;;34.60;4.03;;;17.90;99.70;;;;;;5051596;28;20474;-67
2021/08/31 11:39:15;;;;;;;35.07;3.93;;;17.80;99.70;;;;;;5051296;28;20534;-67
2021/08/31 11:41:43;;;;;;;36.13;3.20;;;17.90;99.70;;;;;;5049404;28;20432;-67
2021/08/31 11:44:13;;;;;;;34.87;3.70;;;17.80;99.70;;;;;;5050997;28;20435;-67
2021/08/31 11:46:42;;;;;;;35.20;3.77;;;17.70;99.70;;;;;;5051473;28;20463;-67
2021/08/31 11:49:14;;;;;;;34.10;3.57;;;17.70;99.70;;;;;;5050788;28;20439;-68
2021/08/31 11:51:44;;;;;;;35.70;4.33;;;17.80;99.70;;;;;;5051388;28;20436;-68
2021/08/31 11:54:13;;;;;;;33.83;4.00;;;17.90;99.70;;;;;;5050861;28;20821;-68
2021/08/31 11:56:40;;;;;;;36.00;4.40;;;18.00;99.70;;;;;;5051419;28;20996;-67
2021/08/31 11:59:08;;;;;;;35.53;4.07;;;18.00;99.70;;;;;;5050731;28;20470;-68
2021/08/31 12:01:36;;;;;;;36.30;4.40;;;17.80;99.70;;;;;;5051463;28;20509;-68
2021/08/31 12:04:16;;;;;;;37.40;4.00;;;17.90;99.70;;;;;;5048942;28;20435;-69
2021/08/31 12:06:46;;;;;;;36.17;4.67;;;18.00;99.70;;;;;;5048560;28;20459;-68
2021/08/31 12:09:16;;;;;;;35.00;4.10;;;18.00;99.70;;;;;;5050888;28;20455;-68
2021/08/31 12:11:43;;;;;;;33.20;3.80;;;18.10;99.70;;;;;;5048594;28;20436;-68
2021/08/31 12:14:10;;;;;;;36.53;4.70;;;18.00;99.70;;;;;;5051208;28;20450;-67
2021/08/31 12:16:37;;;;;;;35.40;4.20;;;17.90;99.70;;;;;;5050835;28;20467;-69
2021/08/31 12:19:15;;;;;;;36.10;4.57;;;17.90;99.70;;;;;;5050966;28;20494;-68
2021/08/31 12:21:42;;;;;;;35.27;3.93;;;17.90;99.70;;;;;;5047945;28;20482;-68
2021/08/31 12:24:14;;;;;;;34.40;4.17;;;18.00;99.70;;;;;;5050782;28;20721;-67
2021/08/31 12:26:40;;;;;;;36.10;4.23;;;18.00;99.70;;;;;;5050681;28;20559;-67
2021/08/31 12:29:10;;;;;;;36.23;4.47;;;18.00;99.70;;;;;;5051353;28;20501;-69
2021/08/31 12:31:38;;;;;;;35.30;4.40;;;18.00;99.70;;;;;;5051091;28;21127;-68
2021/08/31 12:34:26;;;;;;;34.67;4.07;;;18.00;99.70;;;;;;5050559;28;20447;-68
2021/08/31 12:36:53;;;;;;;34.53;4.03;;;18.00;99.70;;;;;;5049856;28;20455;-67
2021/08/31 12:39:26;;;;;;;36.60;5.20;;;18.20;99.70;;;;;;5049502;28;20882;-68
2021/08/31 12:41:54;;;;;;;35.80;4.87;;;18.40;99.70;;;;;;5048208;28;20525;-66
2021/08/31 12:44:22;;;;;;;37.23;5.87;;;18.30;99.70;;;;;;5050176;28;20436;-67